^^
Meteo Knjazevac Station Historical Data
Daily Summary for June 20, 2022 Units:  Metric    English   Both
Daily Weekly Monthly Yearly Custom
  High: Low: Average:
Temperature: 31 °C 10.8 °C 19 °C
Dew Point: 17.8 °C 9.9 °C 12.9 °C
Humidity: 96% 37% 73%
Wind Speed: 9.7km/h 0km/h 3.4km/h
Wind Gust: 19.3km/h - -
Wind- - SW
Pressure: 1018.5 hPa 1014.1 hPa -
Precipitation: 0 mm    
Historical Graphs
 
 
Tabular Data for June 20, 2022
Time Temperature Dew Point Pressure Wind Wind Speed Wind Gust Humidity Rainfall Rate (Hourly) solar Conditions
00:00 15.1 °C 12.4 °C 1018.2 hPa West 3.2 km/h 8 km/h 84% 0 mm 0 W/m2
00:10 14.9 °C 12.4 °C 1018.5 hPa West 3.2 km/h 8 km/h 85% 0 mm 0 W/m2
00:20 14.8 °C 12.3 °C 1018.5 hPa West 3.2 km/h 8 km/h 85% 0 mm 0 W/m2
00:30 14.6 °C 12.1 °C 1018.2 hPa West 3.2 km/h 8 km/h 85% 0 mm 0 W/m2
00:40 14.4 °C 11.9 °C 1018.2 hPa WSW 3.2 km/h 6.4 km/h 85% 0 mm 0 W/m2
00:50 14.2 °C 11.9 °C 1018.2 hPa WNW 3.2 km/h 8 km/h 86% 0 mm 0 W/m2
01:00 14.2 °C 11.9 °C 1018.2 hPa WNW 3.2 km/h 6.4 km/h 86% 0 mm 0 W/m2
01:10 14.1 °C 11.8 °C 1017.8 hPa West 3.2 km/h 4.8 km/h 86% 0 mm 0 W/m2
01:20 13.8 °C 11.7 °C 1017.8 hPa WSW 1.6 km/h 3.2 km/h 87% 0 mm 0 W/m2
01:30 13.6 °C 11.7 °C 1017.8 hPa West 3.2 km/h 6.4 km/h 88% 0 mm 0 W/m2
01:40 13.4 °C 11.4 °C 1017.8 hPa West 3.2 km/h 6.4 km/h 88% 0 mm 0 W/m2
01:50 13.2 °C 11.4 °C 1017.8 hPa WSW 1.6 km/h 4.8 km/h 89% 0 mm 0 W/m2
02:00 12.9 °C 11.1 °C 1017.8 hPa WSW 1.6 km/h 4.8 km/h 89% 0 mm 0 W/m2
02:10 12.8 °C 11.2 °C 1017.8 hPa West 3.2 km/h 6.4 km/h 90% 0 mm 0 W/m2
02:20 12.7 °C 11.1 °C 1017.8 hPa West 3.2 km/h 4.8 km/h 90% 0 mm 0 W/m2
02:30 12.6 °C 11 °C 1017.8 hPa West 1.6 km/h 6.4 km/h 90% 0 mm 0 W/m2
02:40 12.6 °C 11 °C 1017.8 hPa West 3.2 km/h 4.8 km/h 90% 0 mm 0 W/m2
02:50 12.6 °C 11.1 °C 1017.8 hPa WNW 4.8 km/h 8 km/h 91% 0 mm 0 W/m2
03:00 12.4 °C 10.9 °C 1017.8 hPa WNW 1.6 km/h 8 km/h 91% 0 mm 0 W/m2
03:10 12.3 °C 10.9 °C 1017.8 hPa WNW 3.2 km/h 4.8 km/h 91% 0 mm 0 W/m2
03:20 12.2 °C 10.7 °C 1017.8 hPa WSW 1.6 km/h 8 km/h 91% 0 mm 0 W/m2
03:30 11.9 °C 10.5 °C 1017.5 hPa West 3.2 km/h 4.8 km/h 91% 0 mm 0 W/m2
03:40 11.8 °C 10.4 °C 1017.5 hPa West 1.6 km/h 4.8 km/h 91% 0 mm 0 W/m2
03:50 11.7 °C 10.6 °C 1017.5 hPa West 3.2 km/h 4.8 km/h 93% 0 mm 0 W/m2
04:00 11.6 °C 10.5 °C 1017.5 hPa West 3.2 km/h 4.8 km/h 93% 0 mm 0 W/m2
04:10 11.4 °C 10 °C 1017.5 hPa WNW 1.6 km/h 3.2 km/h 91% 0 mm 0 W/m2
04:20 11.3 °C 10.2 °C 1017.5 hPa West 1.6 km/h 3.2 km/h 93% 0 mm 0 W/m2
04:30 11.2 °C 10.1 °C 1017.5 hPa WNW 1.6 km/h 3.2 km/h 93% 0 mm 0 W/m2
04:40 11.2 °C 10.1 °C 1017.5 hPa WNW 3.2 km/h 4.8 km/h 93% 0 mm 0 W/m2
04:50 11.1 °C 10.2 °C 1017.5 hPa Calm   4.8 km/h 94% 0 mm 3 W/m2
05:00 11.1 °C 10.2 °C 1017.5 hPa Calm   4.8 km/h 94% 0 mm 8 W/m2
05:10 11 °C 10.1 °C 1017.5 hPa WNW 1.6 km/h 3.2 km/h 94% 0 mm 13 W/m2
05:20 10.9 °C 9.9 °C 1017.5 hPa West 1.6 km/h 3.2 km/h 94% 0 mm 22 W/m2
05:30 10.8 °C 9.9 °C 1017.5 hPa WNW 3.2 km/h 6.4 km/h 94% 0 mm 28 W/m2
05:40 10.9 °C 10.1 °C 1017.5 hPa West 3.2 km/h 6.4 km/h 95% 0 mm 34 W/m2
05:50 10.9 °C 10.1 °C 1017.5 hPa WSW 1.6 km/h 6.4 km/h 95% 0 mm 74 W/m2
06:00 10.8 °C 9.9 °C 1017.5 hPa WSW 1.6 km/h 3.2 km/h 94% 0 mm 96 W/m2
06:10 10.8 °C 10.1 °C 1017.5 hPa WNW 1.6 km/h 4.8 km/h 95% 0 mm 120 W/m2
06:20 11.1 °C 10.5 °C 1017.5 hPa WNW 1.6 km/h 6.4 km/h 96% 0 mm 144 W/m2
06:30 11.3 °C 10.6 °C 1017.5 hPa WNW 3.2 km/h 4.8 km/h 95% 0 mm 169 W/m2
06:40 11.6 °C 10.8 °C 1017.2 hPa NW 1.6 km/h 8 km/h 95% 0 mm 196 W/m2
06:50 11.9 °C 11.1 °C 1017.2 hPa NW 1.6 km/h 3.2 km/h 95% 0 mm 224 W/m2
07:00 12.2 °C 11.4 °C 1017.2 hPa Calm   3.2 km/h 95% 0 mm 254 W/m2
07:10 12.6 °C 11.8 °C 1017.2 hPa WNW 3.2 km/h 4.8 km/h 95% 0 mm 289 W/m2
07:20 13.2 °C 12.3 °C 1017.2 hPa WNW 4.8 km/h 9.7 km/h 94% 0 mm 325 W/m2
07:30 13.8 °C 12.3 °C 1017.2 hPa West 3.2 km/h 9.7 km/h 91% 0 mm 352 W/m2
07:40 14.3 °C 12.7 °C 1017.2 hPa West 3.2 km/h 6.4 km/h 90% 0 mm 383 W/m2
07:50 14.9 °C 13.3 °C 1017.2 hPa WSW 1.6 km/h 4.8 km/h 90% 0 mm 420 W/m2
08:00 15.6 °C 13.7 °C 1016.8 hPa West 1.6 km/h 4.8 km/h 89% 0 mm 453 W/m2
08:10 16.2 °C 14.4 °C 1016.8 hPa WSW 1.6 km/h 4.8 km/h 89% 0 mm 491 W/m2
08:20 17.4 °C 14.8 °C 1016.8 hPa WSW 1.6 km/h 9.7 km/h 85% 0 mm 531 W/m2
08:30 18.8 °C 15.5 °C 1016.8 hPa SW 1.6 km/h 4.8 km/h 81% 0 mm 564 W/m2
08:40 20.1 °C 15.4 °C 1016.8 hPa WSW 3.2 km/h 8 km/h 75% 0 mm 594 W/m2
08:50 20.9 °C 15.9 °C 1016.8 hPa WSW 3.2 km/h 8 km/h 73% 0 mm 628 W/m2
09:00 21.8 °C 16.1 °C 1016.5 hPa WSW 1.6 km/h 8 km/h 70% 0 mm 655 W/m2
09:10 22.7 °C 16.4 °C 1016.5 hPa SW 1.6 km/h 4.8 km/h 68% 0 mm 685 W/m2
09:20 23.4 °C 17.2 °C 1016.1 hPa Calm   6.4 km/h 68% 0 mm 713 W/m2
09:30 24.2 °C 17 °C 1016.1 hPa ESE 1.6 km/h 8 km/h 64% 0 mm 740 W/m2
09:40 24.9 °C 17.1 °C 1016.1 hPa ESE 4.8 km/h 12.9 km/h 62% 0 mm 767 W/m2
09:50 25.4 °C 16.8 °C 1016.1 hPa Calm   14.5 km/h 59% 0 mm 792 W/m2
10:00 25.9 °C 17.8 °C 1016.1 hPa East 4.8 km/h 12.9 km/h 61% 0 mm 817 W/m2
10:10 26.5 °C 17 °C 1016.1 hPa ESE 4.8 km/h 14.5 km/h 56% 0 mm 837 W/m2
10:20 26.7 °C 16.9 °C 1016.1 hPa ESE 8 km/h 14.5 km/h 55% 0 mm 856 W/m2
10:30 27.1 °C 16.4 °C 1015.8 hPa SE 3.2 km/h 19.3 km/h 52% 0 mm 873 W/m2
10:40 27.3 °C 15.7 °C 1015.8 hPa SSE 4.8 km/h 12.9 km/h 49% 0 mm 653 W/m2
10:50 27.6 °C 16.2 °C 1015.8 hPa SE 4.8 km/h 14.5 km/h 50% 0 mm 905 W/m2
11:00 27.7 °C 14.6 °C 1015.8 hPa SSW 8 km/h 12.9 km/h 45% 0 mm 919 W/m2
11:10 27.8 °C 14.1 °C 1015.8 hPa SW 8 km/h 12.9 km/h 43% 0 mm 931 W/m2
11:20 28.1 °C 14.3 °C 1015.5 hPa South 4.8 km/h 14.5 km/h 43% 0 mm 513 W/m2
11:30 28.3 °C 13.4 °C 1015.5 hPa SSE 8 km/h 14.5 km/h 40% 0 mm 952 W/m2
11:40 28.5 °C 13.2 °C 1015.5 hPa SW 3.2 km/h 19.3 km/h 39% 0 mm 960 W/m2
11:50 28.6 °C 12.9 °C 1015.5 hPa South 4.8 km/h 17.7 km/h 38% 0 mm 961 W/m2
12:00 29 °C 13.7 °C 1015.5 hPa SE 4.8 km/h 12.9 km/h 39% 0 mm 696 W/m2
12:10 28.9 °C 13.6 °C 1015.1 hPa SSE 9.7 km/h 16.1 km/h 39% 0 mm 344 W/m2
12:20 29.1 °C 14.1 °C 1015.1 hPa SSW 1.6 km/h 11.3 km/h 40% 0 mm 793 W/m2
12:30 29.2 °C 13.4 °C 1015.1 hPa SW 8 km/h 14.5 km/h 38% 0 mm 919 W/m2
12:40 29.4 °C 13.7 °C 1014.8 hPa SE 4.8 km/h 14.5 km/h 38% 0 mm 529 W/m2
12:50 29.6 °C 14.1 °C 1014.8 hPa West 8 km/h 14.5 km/h 39% 0 mm 976 W/m2
13:00 29.8 °C 14.7 °C 1014.8 hPa SW 4.8 km/h 14.5 km/h 40% 0 mm 972 W/m2
13:10 29.9 °C 14.8 °C 1014.4 hPa SSW 3.2 km/h 14.5 km/h 40% 0 mm 967 W/m2
13:20 30 °C 14.1 °C 1014.4 hPa South 3.2 km/h 9.7 km/h 38% 0 mm 960 W/m2
13:30 30 °C 14.1 °C 1014.4 hPa SE 3.2 km/h 12.9 km/h 38% 0 mm 952 W/m2
13:40 30 °C 13.7 °C 1014.4 hPa SSE 3.2 km/h 12.9 km/h 37% 0 mm 942 W/m2
13:50 30.3 °C 14.4 °C 1014.1 hPa ENE 8 km/h 14.5 km/h 38% 0 mm 931 W/m2
14:00 30.4 °C 14.9 °C 1014.1 hPa NE 8 km/h 14.5 km/h 39% 0 mm 919 W/m2
14:10 30.8 °C 14.8 °C 1014.1 hPa NNW 4.8 km/h 19.3 km/h 38% 0 mm 905 W/m2
14:20 30.8 °C 15.2 °C 1014.1 hPa North 8 km/h 12.9 km/h 39% 0 mm 890 W/m2
14:30 31 °C 15.4 °C 1014.1 hPa NNE 1.6 km/h 12.9 km/h 39% 0 mm 873 W/m2
14:40 31 °C 15.4 °C 1014.1 hPa SSE 4.8 km/h 12.9 km/h 39% 0 mm 856 W/m2
Knjazevac, Serbia
Compliments of Weather Underground - 2 mb